sensor_id;sensor_type;location;lat;lon;timestamp;pressure;altitude;pressure_sealevel;temperature;humidity
84145;BME280;74264;48.988;12.040;2024-01-30T00:02:06;99401.31;;;-3.25;92.43
84145;BME280;74264;48.988;12.040;2024-01-30T00:04:32;99406.56;;;-3.28;91.69
84145;BME280;74264;48.988;12.040;2024-01-30T00:06:57;99401.63;;;-3.35;91.91
84145;BME280;74264;48.988;12.040;2024-01-30T00:09:23;99396.38;;;-3.32;91.89
84145;BME280;74264;48.988;12.040;2024-01-30T00:11:48;99395.69;;;-3.39;91.83
84145;BME280;74264;48.988;12.040;2024-01-30T00:14:14;99399.03;;;-3.35;92.27
84145;BME280;74264;48.988;12.040;2024-01-30T00:16:39;99396.75;;;-3.17;93.25
84145;BME280;74264;48.988;12.040;2024-01-30T00:19:05;99398.16;;;-3.07;94.04
84145;BME280;74264;48.988;12.040;2024-01-30T00:21:30;99396.97;;;-2.96;93.83
84145;BME280;74264;48.988;12.040;2024-01-30T00:23:56;99397.19;;;-3.04;93.64
84145;BME280;74264;48.988;12.040;2024-01-30T00:26:22;99400.13;;;-3.15;92.81
84145;BME280;74264;48.988;12.040;2024-01-30T00:28:47;99406.97;;;-3.12;92.91
84145;BME280;74264;48.988;12.040;2024-01-30T00:31:13;99403.00;;;-3.24;92.71
84145;BME280;74264;48.988;12.040;2024-01-30T00:33:39;99401.44;;;-3.29;92.31
84145;BME280;74264;48.988;12.040;2024-01-30T00:36:09;99399.78;;;-3.30;92.13
84145;BME280;74264;48.988;12.040;2024-01-30T00:38:35;99397.19;;;-3.32;92.55
84145;BME280;74264;48.988;12.040;2024-01-30T00:41:01;99395.63;;;-3.36;92.18
84145;BME280;74264;48.988;12.040;2024-01-30T00:43:30;99394.91;;;-3.41;92.14
84145;BME280;74264;48.988;12.040;2024-01-30T00:45:56;99396.72;;;-3.44;91.67
84145;BME280;74264;48.988;12.040;2024-01-30T00:48:23;99394.31;;;-3.50;91.97
84145;BME280;74264;48.988;12.040;2024-01-30T00:50:49;99393.97;;;-3.38;93.47
84145;BME280;74264;48.988;12.040;2024-01-30T00:53:15;99391.00;;;-3.26;93.14
84145;BME280;74264;48.988;12.040;2024-01-30T00:55:40;99391.84;;;-3.26;92.79
84145;BME280;74264;48.988;12.040;2024-01-30T00:58:06;99391.19;;;-3.32;93.00
84145;BME280;74264;48.988;12.040;2024-01-30T01:00:32;99393.09;;;-3.39;92.43
84145;BME280;74264;48.988;12.040;2024-01-30T01:02:58;99397.53;;;-3.42;92.41
84145;BME280;74264;48.988;12.040;2024-01-30T01:05:24;99394.09;;;-3.43;93.00
84145;BME280;74264;48.988;12.040;2024-01-30T01:07:50;99396.66;;;-3.41;93.21
84145;BME280;74264;48.988;12.040;2024-01-30T01:10:16;99405.19;;;-3.39;93.19
84145;BME280;74264;48.988;12.040;2024-01-30T01:12:42;99389.75;;;-3.42;92.55
84145;BME280;74264;48.988;12.040;2024-01-30T01:15:08;99397.06;;;-3.55;91.41
84145;BME280;74264;48.988;12.040;2024-01-30T01:17:38;99397.13;;;-3.58;91.54
84145;BME280;74264;48.988;12.040;2024-01-30T01:20:05;99397.28;;;-3.62;92.22
84145;BME280;74264;48.988;12.040;2024-01-30T01:22:32;99398.84;;;-3.57;93.10
84145;BME280;74264;48.988;12.040;2024-01-30T01:24:58;99392.59;;;-3.50;93.29
84145;BME280;74264;48.988;12.040;2024-01-30T01:27:24;99396.72;;;-3.44;92.94
84145;BME280;74264;48.988;12.040;2024-01-30T01:29:50;99395.97;;;-3.48;93.48
84145;BME280;74264;48.988;12.040;2024-01-30T01:32:16;99395.16;;;-3.50;93.20
84145;BME280;74264;48.988;12.040;2024-01-30T01:34:42;99392.69;;;-3.53;92.51
84145;BME280;74264;48.988;12.040;2024-01-30T01:37:07;99391.81;;;-3.53;93.02
84145;BME280;74264;48.988;12.040;2024-01-30T01:39:33;99397.06;;;-3.55;92.75
84145;BME280;74264;48.988;12.040;2024-01-30T01:41:59;99394.38;;;-3.52;92.99
84145;BME280;74264;48.988;12.040;2024-01-30T01:44:24;99391.03;;;-3.55;92.88
84145;BME280;74264;48.988;12.040;2024-01-30T01:46:51;99382.50;;;-3.59;92.32
84145;BME280;74264;48.988;12.040;2024-01-30T01:49:16;99388.66;;;-3.63;92.17
84145;BME280;74264;48.988;12.040;2024-01-30T01:51:43;99382.56;;;-3.60;92.27
84145;BME280;74264;48.988;12.040;2024-01-30T01:54:10;99378.56;;;-3.43;93.10
84145;BME280;74264;48.988;12.040;2024-01-30T01:56:36;99378.53;;;-3.41;93.11
84145;BME280;74264;48.988;12.040;2024-01-30T01:59:07;99373.31;;;-3.40;92.76
84145;BME280;74264;48.988;12.040;2024-01-30T02:01:38;99374.19;;;-3.41;92.77
84145;BME280;74264;48.988;12.040;2024-01-30T02:04:04;99376.69;;;-3.38;92.95
84145;BME280;74264;48.988;12.040;2024-01-30T02:06:30;99372.63;;;-3.46;92.58
84145;BME280;74264;48.988;12.040;2024-01-30T02:08:56;99380.34;;;-3.45;92.53
84145;BME280;74264;48.988;12.040;2024-01-30T02:11:22;99379.34;;;-3.41;92.07
84145;BME280;74264;48.988;12.040;2024-01-30T02:13:49;99380.16;;;-3.39;92.68
84145;BME280;74264;48.988;12.040;2024-01-30T02:16:14;99373.34;;;-3.41;92.19
84145;BME280;74264;48.988;12.040;2024-01-30T02:18:40;99385.56;;;-3.46;91.60
84145;BME280;74264;48.988;12.040;2024-01-30T02:21:22;99379.78;;;-3.54;91.77
84145;BME280;74264;48.988;12.040;2024-01-30T02:23:48;99382.63;;;-3.63;92.02
84145;BME280;74264;48.988;12.040;2024-01-30T02:26:14;99384.59;;;-3.71;91.46
84145;BME280;74264;48.988;12.040;2024-01-30T02:28:40;99380.25;;;-3.69;92.47
84145;BME280;74264;48.988;12.040;2024-01-30T02:31:05;99383.47;;;-3.63;92.34
84145;BME280;74264;48.988;12.040;2024-01-30T02:33:31;99376.63;;;-3.64;92.04
84145;BME280;74264;48.988;12.040;2024-01-30T02:35:57;99376.91;;;-3.73;91.65
84145;BME280;74264;48.988;12.040;2024-01-30T02:38:23;99378.19;;;-3.87;90.28
84145;BME280;74264;48.988;12.040;2024-01-30T02:40:49;99367.25;;;-3.97;90.61
84145;BME280;74264;48.988;12.040;2024-01-30T02:43:16;99376.84;;;-4.02;91.18
84145;BME280;74264;48.988;12.040;2024-01-30T02:45:41;99376.84;;;-4.00;91.63
84145;BME280;74264;48.988;12.040;2024-01-30T02:48:07;99372.22;;;-3.91;92.53
84145;BME280;74264;48.988;12.040;2024-01-30T02:50:32;99380.50;;;-3.78;93.01
84145;BME280;74264;48.988;12.040;2024-01-30T02:52:58;99378.91;;;-3.82;93.43
84145;BME280;74264;48.988;12.040;2024-01-30T02:55:23;99372.06;;;-3.85;93.22
84145;BME280;74264;48.988;12.040;2024-01-30T02:57:49;99375.59;;;-3.87;93.33
84145;BME280;74264;48.988;12.040;2024-01-30T03:00:15;99377.41;;;-3.91;93.09
84145;BME280;74264;48.988;12.040;2024-01-30T03:02:40;99368.13;;;-3.98;92.77
84145;BME280;74264;48.988;12.040;2024-01-30T03:05:07;99375.06;;;-4.00;92.31
84145;BME280;74264;48.988;12.040;2024-01-30T03:07:33;99382.06;;;-4.04;92.44
84145;BME280;74264;48.988;12.040;2024-01-30T03:09:58;99383.56;;;-3.95;92.76
84145;BME280;74264;48.988;12.040;2024-01-30T03:12:24;99381.00;;;-3.96;92.56
84145;BME280;74264;48.988;12.040;2024-01-30T03:14:50;99377.53;;;-3.95;92.75
84145;BME280;74264;48.988;12.040;2024-01-30T03:17:16;99378.50;;;-3.99;92.46
84145;BME280;74264;48.988;12.040;2024-01-30T03:19:41;99380.94;;;-3.93;93.19
84145;BME280;74264;48.988;12.040;2024-01-30T03:22:07;99375.81;;;-3.96;92.62
84145;BME280;74264;48.988;12.040;2024-01-30T03:24:33;99381.78;;;-3.93;92.94
84145;BME280;74264;48.988;12.040;2024-01-30T03:26:58;99385.00;;;-3.85;92.93
84145;BME280;74264;48.988;12.040;2024-01-30T03:29:24;99388.28;;;-3.78;93.05
84145;BME280;74264;48.988;12.040;2024-01-30T03:31:49;99381.53;;;-3.84;92.59
84145;BME280;74264;48.988;12.040;2024-01-30T03:34:15;99383.56;;;-3.95;91.84
84145;BME280;74264;48.988;12.040;2024-01-30T03:36:41;99392.16;;;-3.93;92.46
84145;BME280;74264;48.988;12.040;2024-01-30T03:39:06;99390.63;;;-4.02;91.59
84145;BME280;74264;48.988;12.040;2024-01-30T03:41:32;99386.47;;;-4.07;91.39
84145;BME280;74264;48.988;12.040;2024-01-30T03:43:58;99382.38;;;-4.14;91.40
84145;BME280;74264;48.988;12.040;2024-01-30T03:46:23;99381.78;;;-4.24;91.28
84145;BME280;74264;48.988;12.040;2024-01-30T03:48:49;99372.88;;;-4.14;92.14
84145;BME280;74264;48.988;12.040;2024-01-30T03:51:15;99375.94;;;-3.99;92.96
84145;BME280;74264;48.988;12.040;2024-01-30T03:53:42;99378.19;;;-3.89;92.95
84145;BME280;74264;48.988;12.040;2024-01-30T03:56:08;99381.59;;;-3.87;93.38
84145;BME280;74264;48.988;12.040;2024-01-30T03:58:34;99378.91;;;-3.82;92.81
84145;BME280;74264;48.988;12.040;2024-01-30T04:00:59;99382.41;;;-3.85;92.63
84145;BME280;74264;48.988;12.040;2024-01-30T04:03:25;99375.44;;;-3.83;92.52
84145;BME280;74264;48.988;12.040;2024-01-30T04:05:52;99375.34;;;-3.78;93.07
84145;BME280;74264;48.988;12.040;2024-01-30T04:08:18;99379.69;;;-3.80;92.44
84145;BME280;74264;48.988;12.040;2024-01-30T04:10:43;99376.38;;;-3.85;92.65
84145;BME280;74264;48.988;12.040;2024-01-30T04:13:09;99368.81;;;-3.91;92.27
84145;BME280;74264;48.988;12.040;2024-01-30T04:15:35;99373.19;;;-3.93;91.90
84145;BME280;74264;48.988;12.040;2024-01-30T04:18:01;99379.91;;;-3.88;92.21
84145;BME280;74264;48.988;12.040;2024-01-30T04:20:26;99374.91;;;-3.94;91.97
84145;BME280;74264;48.988;12.040;2024-01-30T04:22:52;99377.31;;;-3.88;92.42
84145;BME280;74264;48.988;12.040;2024-01-30T04:25:18;99372.75;;;-3.80;92.47
84145;BME280;74264;48.988;12.040;2024-01-30T04:27:43;99381.16;;;-3.72;92.58
84145;BME280;74264;48.988;12.040;2024-01-30T04:30:09;99378.78;;;-3.79;92.40
84145;BME280;74264;48.988;12.040;2024-01-30T04:32:36;99374.53;;;-4.11;90.26
84145;BME280;74264;48.988;12.040;2024-01-30T04:35:03;99378.34;;;-4.24;91.02
84145;BME280;74264;48.988;12.040;2024-01-30T04:37:29;99376.66;;;-4.25;91.04
84145;BME280;74264;48.988;12.040;2024-01-30T04:39:54;99369.00;;;-4.28;91.29
84145;BME280;74264;48.988;12.040;2024-01-30T04:42:20;99366.47;;;-4.31;91.23
84145;BME280;74264;48.988;12.040;2024-01-30T04:44:46;99376.34;;;-4.45;90.08
84145;BME280;74264;48.988;12.040;2024-01-30T04:47:12;99372.94;;;-4.47;90.65
84145;BME280;74264;48.988;12.040;2024-01-30T04:49:38;99374.94;;;-4.58;90.27
84145;BME280;74264;48.988;12.040;2024-01-30T04:52:05;99369.75;;;-4.57;90.71
84145;BME280;74264;48.988;12.040;2024-01-30T04:54:31;99364.66;;;-4.60;90.55
84145;BME280;74264;48.988;12.040;2024-01-30T04:56:57;99359.31;;;-4.52;91.28
84145;BME280;74264;48.988;12.040;2024-01-30T04:59:23;99367.00;;;-4.51;92.24
84145;BME280;74264;48.988;12.040;2024-01-30T05:01:49;99360.94;;;-4.50;92.05
84145;BME280;74264;48.988;12.040;2024-01-30T05:04:15;99366.47;;;-4.63;90.94
84145;BME280;74264;48.988;12.040;2024-01-30T05:06:40;99367.78;;;-4.47;92.50
84145;BME280;74264;48.988;12.040;2024-01-30T05:09:06;99358.16;;;-4.42;92.85
84145;BME280;74264;48.988;12.040;2024-01-30T05:11:37;99361.50;;;-4.39;93.23
84145;BME280;74264;48.988;12.040;2024-01-30T05:14:03;99359.00;;;-4.42;93.43
84145;BME280;74264;48.988;12.040;2024-01-30T05:16:28;99357.31;;;-4.43;93.36
84145;BME280;74264;48.988;12.040;2024-01-30T05:18:54;99364.63;;;-4.28;93.67
84145;BME280;74264;48.988;12.040;2024-01-30T05:21:20;99359.41;;;-4.25;93.90
84145;BME280;74264;48.988;12.040;2024-01-30T05:23:45;99356.88;;;-4.26;92.61
84145;BME280;74264;48.988;12.040;2024-01-30T05:26:11;99355.44;;;-4.07;93.21
84145;BME280;74264;48.988;12.040;2024-01-30T05:28:37;99363.81;;;-3.97;93.80
84145;BME280;74264;48.988;12.040;2024-01-30T05:31:03;99360.72;;;-3.81;93.94
84145;BME280;74264;48.988;12.040;2024-01-30T05:33:28;99357.34;;;-3.83;93.00
84145;BME280;74264;48.988;12.040;2024-01-30T05:35:54;99358.75;;;-4.02;92.22
84145;BME280;74264;48.988;12.040;2024-01-30T05:38:20;99358.44;;;-4.21;91.12
84145;BME280;74264;48.988;12.040;2024-01-30T05:40:45;99362.00;;;-4.25;91.56
84145;BME280;74264;48.988;12.040;2024-01-30T05:43:11;99365.59;;;-4.30;90.57
84145;BME280;74264;48.988;12.040;2024-01-30T05:45:37;99366.72;;;-4.40;90.43
84145;BME280;74264;48.988;12.040;2024-01-30T05:48:04;99372.78;;;-4.41;90.79
84145;BME280;74264;48.988;12.040;2024-01-30T05:50:30;99374.47;;;-4.40;91.88
84145;BME280;74264;48.988;12.040;2024-01-30T05:52:56;99370.16;;;-4.40;91.84
84145;BME280;74264;48.988;12.040;2024-01-30T05:55:21;99367.53;;;-4.08;93.93
84145;BME280;74264;48.988;12.040;2024-01-30T05:57:47;99376.31;;;-4.13;93.81
84145;BME280;74264;48.988;12.040;2024-01-30T06:00:13;99381.88;;;-4.27;92.81
84145;BME280;74264;48.988;12.040;2024-01-30T06:02:39;99391.50;;;-4.32;92.84
84145;BME280;74264;48.988;12.040;2024-01-30T06:05:05;99390.84;;;-4.40;91.93
84145;BME280;74264;48.988;12.040;2024-01-30T06:07:31;99397.69;;;-4.39;92.87
84145;BME280;74264;48.988;12.040;2024-01-30T06:09:57;99397.69;;;-4.37;92.86
84145;BME280;74264;48.988;12.040;2024-01-30T06:12:22;99398.25;;;-4.28;94.00
84145;BME280;74264;48.988;12.040;2024-01-30T06:14:48;99406.81;;;-4.26;94.35
84145;BME280;74264;48.988;12.040;2024-01-30T06:17:13;99404.97;;;-4.21;93.97
84145;BME280;74264;48.988;12.040;2024-01-30T06:19:39;99411.44;;;-4.05;94.76
84145;BME280;74264;48.988;12.040;2024-01-30T06:22:05;99412.28;;;-4.04;94.82
84145;BME280;74264;48.988;12.040;2024-01-30T06:24:31;99411.47;;;-4.06;94.87
84145;BME280;74264;48.988;12.040;2024-01-30T06:26:56;99416.91;;;-4.15;94.79
84145;BME280;74264;48.988;12.040;2024-01-30T06:29:22;99415.31;;;-4.21;94.79
84145;BME280;74264;48.988;12.040;2024-01-30T06:31:50;99418.63;;;-4.16;94.58
84145;BME280;74264;48.988;12.040;2024-01-30T06:34:16;99420.25;;;-4.13;94.49
84145;BME280;74264;48.988;12.040;2024-01-30T06:36:42;99418.47;;;-4.10;94.50
84145;BME280;74264;48.988;12.040;2024-01-30T06:39:07;99409.81;;;-4.09;94.52
84145;BME280;74264;48.988;12.040;2024-01-30T06:41:33;99405.59;;;-4.13;94.37
84145;BME280;74264;48.988;12.040;2024-01-30T06:43:59;99408.19;;;-4.13;94.22
84145;BME280;74264;48.988;12.040;2024-01-30T06:46:25;99399.56;;;-4.13;94.15
84145;BME280;74264;48.988;12.040;2024-01-30T06:48:50;99395.06;;;-4.05;94.57
84145;BME280;74264;48.988;12.040;2024-01-30T06:51:16;99406.47;;;-4.12;94.99
84145;BME280;74264;48.988;12.040;2024-01-30T06:53:42;99411.47;;;-4.06;95.48
84145;BME280;74264;48.988;12.040;2024-01-30T06:56:07;99413.88;;;-4.00;95.42
84145;BME280;74264;48.988;12.040;2024-01-30T06:58:34;99420.59;;;-3.93;95.27
84145;BME280;74264;48.988;12.040;2024-01-30T07:01:00;99422.19;;;-3.89;95.22
84145;BME280;74264;48.988;12.040;2024-01-30T07:03:25;99418.94;;;-3.95;95.38
84145;BME280;74264;48.988;12.040;2024-01-30T07:05:51;99424.22;;;-4.00;94.87
84145;BME280;74264;48.988;12.040;2024-01-30T07:08:17;99419.91;;;-3.99;94.28
84145;BME280;74264;48.988;12.040;2024-01-30T07:10:43;99419.09;;;-4.02;94.05
84145;BME280;74264;48.988;12.040;2024-01-30T07:13:13;99421.56;;;-3.97;93.35
84145;BME280;74264;48.988;12.040;2024-01-30T07:15:42;99424.16;;;-3.97;92.90
84145;BME280;74264;48.988;12.040;2024-01-30T07:18:07;99420.66;;;-3.96;93.17
84145;BME280;74264;48.988;12.040;2024-01-30T07:20:35;99420.81;;;-4.02;92.59
84145;BME280;74264;48.988;12.040;2024-01-30T07:23:01;99423.59;;;-4.08;92.01
84145;BME280;74264;48.988;12.040;2024-01-30T07:25:27;99420.03;;;-4.04;91.52
84145;BME280;74264;48.988;12.040;2024-01-30T07:27:56;99426.75;;;-3.97;92.67
84145;BME280;74264;48.988;12.040;2024-01-30T07:30:22;99412.91;;;-3.96;92.37
84145;BME280;74264;48.988;12.040;2024-01-30T07:32:48;99428.66;;;-3.74;93.85
84145;BME280;74264;48.988;12.040;2024-01-30T07:35:14;99430.13;;;-3.64;93.85
84145;BME280;74264;48.988;12.040;2024-01-30T07:37:40;99430.03;;;-3.61;93.94
84145;BME280;74264;48.988;12.040;2024-01-30T07:40:06;99431.81;;;-3.63;93.46
84145;BME280;74264;48.988;12.040;2024-01-30T07:42:33;99431.78;;;-3.62;93.53
84145;BME280;74264;48.988;12.040;2024-01-30T07:45:00;99432.59;;;-3.60;92.96
84145;BME280;74264;48.988;12.040;2024-01-30T07:47:25;99432.50;;;-3.57;92.70
84145;BME280;74264;48.988;12.040;2024-01-30T07:49:51;99438.16;;;-3.44;93.63
84145;BME280;74264;48.988;12.040;2024-01-30T07:52:17;99434.25;;;-3.30;94.40
84145;BME280;74264;48.988;12.040;2024-01-30T07:54:42;99443.38;;;-3.17;94.12
84145;BME280;74264;48.988;12.040;2024-01-30T07:57:08;99435.31;;;-3.08;94.20
84145;BME280;74264;48.988;12.040;2024-01-30T07:59:33;99438.53;;;-2.99;93.66
84145;BME280;74264;48.988;12.040;2024-01-30T08:02:00;99438.47;;;-2.98;93.19
84145;BME280;74264;48.988;12.040;2024-01-30T08:04:25;99444.41;;;-2.94;92.84
84145;BME280;74264;48.988;12.040;2024-01-30T08:06:51;99444.44;;;-2.96;92.60
84145;BME280;74264;48.988;12.040;2024-01-30T08:09:16;99446.75;;;-2.87;93.15
84145;BME280;74264;48.988;12.040;2024-01-30T08:11:42;99446.66;;;-2.84;93.56
84145;BME280;74264;48.988;12.040;2024-01-30T08:14:08;99449.06;;;-2.78;93.35
84145;BME280;74264;48.988;12.040;2024-01-30T08:16:33;99448.94;;;-2.73;93.28
84145;BME280;74264;48.988;12.040;2024-01-30T08:18:59;99448.72;;;-2.67;92.83
84145;BME280;74264;48.988;12.040;2024-01-30T08:21:24;99448.63;;;-2.64;93.29
84145;BME280;74264;48.988;12.040;2024-01-30T08:23:50;99455.13;;;-2.51;93.71
84145;BME280;74264;48.988;12.040;2024-01-30T08:26:16;99445.31;;;-2.43;93.65
84145;BME280;74264;48.988;12.040;2024-01-30T08:28:41;99446.84;;;-2.36;93.68
84145;BME280;74264;48.988;12.040;2024-01-30T08:31:07;99448.38;;;-2.31;93.71
84145;BME280;74264;48.988;12.040;2024-01-30T08:33:32;99439.63;;;-2.28;93.07
84145;BME280;74264;48.988;12.040;2024-01-30T08:35:58;99438.63;;;-2.24;93.39
84145;BME280;74264;48.988;12.040;2024-01-30T08:38:24;99443.50;;;-2.15;93.24
84145;BME280;74264;48.988;12.040;2024-01-30T08:40:49;99442.28;;;-2.05;93.30
84145;BME280;74264;48.988;12.040;2024-01-30T08:43:15;99435.13;;;-1.98;92.92
84145;BME280;74264;48.988;12.040;2024-01-30T08:45:41;99440.53;;;-1.80;92.96
84145;BME280;74264;48.988;12.040;2024-01-30T08:48:07;99434.31;;;-1.76;92.13
84145;BME280;74264;48.988;12.040;2024-01-30T08:50:35;99434.91;;;-1.68;91.75
84145;BME280;74264;48.988;12.040;2024-01-30T08:53:00;99437.03;;;-1.56;92.34
84145;BME280;74264;48.988;12.040;2024-01-30T08:55:26;99442.56;;;-1.42;92.60
84145;BME280;74264;48.988;12.040;2024-01-30T08:57:51;99440.69;;;-1.15;92.30
84145;BME280;74264;48.988;12.040;2024-01-30T09:00:18;99445.00;;;-0.92;91.34
84145;BME280;74264;48.988;12.040;2024-01-30T09:02:44;99439.53;;;-0.85;91.74
84145;BME280;74264;48.988;12.040;2024-01-30T09:05:09;99434.19;;;-0.82;91.97
84145;BME280;74264;48.988;12.040;2024-01-30T09:07:35;99435.88;;;-0.81;92.69
84145;BME280;74264;48.988;12.040;2024-01-30T09:10:01;99437.56;;;-0.80;91.99
84145;BME280;74264;48.988;12.040;2024-01-30T09:12:26;99436.59;;;-0.77;92.24
84145;BME280;74264;48.988;12.040;2024-01-30T09:14:52;99441.00;;;-0.58;90.99
84145;BME280;74264;48.988;12.040;2024-01-30T09:17:18;99444.28;;;-0.33;90.47
84145;BME280;74264;48.988;12.040;2024-01-30T09:19:45;99448.94;;;-0.19;89.41
84145;BME280;74264;48.988;12.040;2024-01-30T09:22:11;99445.28;;;-0.15;88.70
84145;BME280;74264;48.988;12.040;2024-01-30T09:24:37;99443.19;;;-0.07;88.99
84145;BME280;74264;48.988;12.040;2024-01-30T09:27:02;99442.88;;;0.00;88.96
84145;BME280;74264;48.988;12.040;2024-01-30T09:29:28;99439.03;;;0.09;89.16
84145;BME280;74264;48.988;12.040;2024-01-30T09:31:54;99441.38;;;0.15;89.33
84145;BME280;74264;48.988;12.040;2024-01-30T09:34:19;99440.97;;;0.24;89.36
84145;BME280;74264;48.988;12.040;2024-01-30T09:36:45;99442.34;;;0.33;88.60
84145;BME280;74264;48.988;12.040;2024-01-30T09:39:11;99444.59;;;0.40;88.35
84145;BME280;74264;48.988;12.040;2024-01-30T09:41:47;99445.75;;;0.53;88.60
84145;BME280;74264;48.988;12.040;2024-01-30T09:44:15;99441.09;;;0.60;87.88
84145;BME280;74264;48.988;12.040;2024-01-30T09:46:42;99447.94;;;0.62;85.50
84145;BME280;74264;48.988;12.040;2024-01-30T09:49:09;99437.03;;;0.73;86.98
84145;BME280;74264;48.988;12.040;2024-01-30T09:51:35;99436.06;;;0.75;86.28
84145;BME280;74264;48.988;12.040;2024-01-30T09:54:02;99441.81;;;0.82;86.02
84145;BME280;74264;48.988;12.040;2024-01-30T09:56:28;99439.72;;;0.90;85.71
84145;BME280;74264;48.988;12.040;2024-01-30T09:58:54;99438.34;;;1.00;85.65
84145;BME280;74264;48.988;12.040;2024-01-30T10:01:20;99434.81;;;1.20;87.22
84145;BME280;74264;48.988;12.040;2024-01-30T10:03:46;99439.06;;;1.39;86.83
84145;BME280;74264;48.988;12.040;2024-01-30T10:06:11;99440.25;;;1.51;86.25
84145;BME280;74264;48.988;12.040;2024-01-30T10:08:37;99445.78;;;1.62;85.32
84145;BME280;74264;48.988;12.040;2024-01-30T10:11:03;99434.41;;;1.63;84.87
84145;BME280;74264;48.988;12.040;2024-01-30T10:13:29;99442.16;;;1.64;84.76
84145;BME280;74264;48.988;12.040;2024-01-30T10:15:55;99433.44;;;1.65;84.56
84145;BME280;74264;48.988;12.040;2024-01-30T10:18:22;99434.59;;;1.77;85.73
84145;BME280;74264;48.988;12.040;2024-01-30T10:20:48;99438.13;;;1.93;85.30
84145;BME280;74264;48.988;12.040;2024-01-30T10:23:14;99436.81;;;2.01;84.49
84145;BME280;74264;48.988;12.040;2024-01-30T10:25:40;99429.13;;;1.98;83.15
84145;BME280;74264;48.988;12.040;2024-01-30T10:28:06;99428.06;;;2.03;82.95
84145;BME280;74264;48.988;12.040;2024-01-30T10:30:31;99423.13;;;1.96;82.37
84145;BME280;74264;48.988;12.040;2024-01-30T10:32:57;99421.13;;;2.01;82.24
84145;BME280;74264;48.988;12.040;2024-01-30T10:35:23;99418.91;;;2.11;82.72
84145;BME280;74264;48.988;12.040;2024-01-30T10:37:48;99423.56;;;2.22;82.33
84145;BME280;74264;48.988;12.040;2024-01-30T10:40:14;99406.31;;;2.35;84.40
84145;BME280;74264;48.988;12.040;2024-01-30T10:42:45;99404.06;;;2.29;82.49
84145;BME280;74264;48.988;12.040;2024-01-30T10:45:12;99416.94;;;2.32;81.65
84145;BME280;74264;48.988;12.040;2024-01-30T10:47:40;99406.22;;;2.36;81.59
84145;BME280;74264;48.988;12.040;2024-01-30T10:50:08;99399.59;;;2.46;80.39
84145;BME280;74264;48.988;12.040;2024-01-30T10:52:34;99401.72;;;2.55;80.29
84145;BME280;74264;48.988;12.040;2024-01-30T10:55:00;99391.53;;;2.66;81.72
84145;BME280;74264;48.988;12.040;2024-01-30T10:57:26;99395.50;;;2.73;79.96
84145;BME280;74264;48.988;12.040;2024-01-30T10:59:57;99394.16;;;2.66;79.41
84145;BME280;74264;48.988;12.040;2024-01-30T11:02:23;99387.56;;;2.75;80.77
84145;BME280;74264;48.988;12.040;2024-01-30T11:04:55;99379.38;;;2.81;79.99
84145;BME280;74264;48.988;12.040;2024-01-30T11:07:28;99384.97;;;2.90;81.19
84145;BME280;74264;48.988;12.040;2024-01-30T11:12:25;99384.78;;;2.93;80.24
84145;BME280;74264;48.988;12.040;2024-01-30T11:15:03;99391.13;;;3.21;80.41
84145;BME280;74264;48.988;12.040;2024-01-30T11:17:52;99379.63;;;3.23;78.71
84145;BME280;74264;48.988;12.040;2024-01-30T11:20:29;99371.31;;;3.46;81.02
84145;BME280;74264;48.988;12.040;2024-01-30T11:22:58;99380.06;;;3.61;79.86
84145;BME280;74264;48.988;12.040;2024-01-30T11:25:25;99377.91;;;3.67;79.30
84145;BME280;74264;48.988;12.040;2024-01-30T11:27:55;99369.56;;;3.61;75.81
84145;BME280;74264;48.988;12.040;2024-01-30T11:30:27;99368.69;;;3.76;78.65
84145;BME280;74264;48.988;12.040;2024-01-30T11:33:04;99367.47;;;3.81;78.14
84145;BME280;74264;48.988;12.040;2024-01-30T11:35:34;99366.94;;;3.90;78.79
84145;BME280;74264;48.988;12.040;2024-01-30T11:38:01;99361.34;;;3.96;78.07
84145;BME280;74264;48.988;12.040;2024-01-30T11:40:28;99358.41;;;4.01;76.58
84145;BME280;74264;48.988;12.040;2024-01-30T11:42:55;99365.16;;;4.05;76.47
84145;BME280;74264;48.988;12.040;2024-01-30T11:45:21;99356.28;;;4.22;76.81
84145;BME280;74264;48.988;12.040;2024-01-30T11:47:47;99352.44;;;4.27;75.67
84145;BME280;74264;48.988;12.040;2024-01-30T11:50:13;99354.59;;;4.35;75.14
84145;BME280;74264;48.988;12.040;2024-01-30T11:52:39;99347.94;;;4.43;74.87
84145;BME280;74264;48.988;12.040;2024-01-30T11:55:06;99348.75;;;4.58;75.29
84145;BME280;74264;48.988;12.040;2024-01-30T11:57:33;99341.53;;;4.75;74.06
84145;BME280;74264;48.988;12.040;2024-01-30T12:00:01;99343.69;;;4.83;73.42
84145;BME280;74264;48.988;12.040;2024-01-30T12:02:29;99341.59;;;4.88;73.35
84145;BME280;74264;48.988;12.040;2024-01-30T12:04:55;99331.63;;;4.93;72.88
84145;BME280;74264;48.988;12.040;2024-01-30T12:07:20;99332.00;;;5.01;73.90
84145;BME280;74264;48.988;12.040;2024-01-30T12:09:53;99330.94;;;4.77;73.69
84145;BME280;74264;48.988;12.040;2024-01-30T12:12:23;99326.75;;;4.60;74.54
84145;BME280;74264;48.988;12.040;2024-01-30T12:14:49;99325.63;;;4.50;74.68
84145;BME280;74264;48.988;12.040;2024-01-30T12:17:32;99325.09;;;4.45;74.73
84145;BME280;74264;48.988;12.040;2024-01-30T12:20:13;99323.88;;;4.37;73.27
84145;BME280;74264;48.988;12.040;2024-01-30T12:22:43;99329.47;;;4.45;74.78
84145;BME280;74264;48.988;12.040;2024-01-30T12:25:10;99314.88;;;4.81;74.13
84145;BME280;74264;48.988;12.040;2024-01-30T12:27:36;99319.38;;;5.20;71.09
84145;BME280;74264;48.988;12.040;2024-01-30T12:30:09;99329.44;;;5.65;70.20
84145;BME280;74264;48.988;12.040;2024-01-30T12:32:36;99318.63;;;5.70;70.05
84145;BME280;74264;48.988;12.040;2024-01-30T12:35:02;99319.78;;;5.78;70.63
84145;BME280;74264;48.988;12.040;2024-01-30T12:37:29;99318.69;;;5.56;70.39
84145;BME280;74264;48.988;12.040;2024-01-30T12:39:56;99321.56;;;5.26;70.30
84145;BME280;74264;48.988;12.040;2024-01-30T12:42:21;99311.06;;;5.26;71.09
84145;BME280;74264;48.988;12.040;2024-01-30T12:44:48;99311.84;;;5.41;70.68
84145;BME280;74264;48.988;12.040;2024-01-30T12:47:15;99307.47;;;5.66;nan
84145;BME280;74264;48.988;12.040;2024-01-30T12:49:44;99303.22;;;6.03;67.95
84145;BME280;74264;48.988;12.040;2024-01-30T12:52:11;99300.22;;;6.45;66.92